createdAt,value
2018-09-15T00:00:59.197Z,15.87
2018-09-15T00:03:27.750Z,16.33
2018-09-15T00:05:56.250Z,15.90
2018-09-15T00:08:24.733Z,15.87
2018-09-15T00:10:53.254Z,15.93
2018-09-15T00:13:22.816Z,16.00
2018-09-15T00:15:51.649Z,16.43
2018-09-15T00:18:20.172Z,16.13
2018-09-15T00:20:48.716Z,15.83
2018-09-15T00:23:17.221Z,16.53
2018-09-15T00:25:45.777Z,16.67
2018-09-15T00:28:14.271Z,17.73
2018-09-15T00:30:43.079Z,17.97
2018-09-15T00:33:11.628Z,16.43
2018-09-15T00:35:40.179Z,16.70
2018-09-15T00:38:08.642Z,15.17
2018-09-15T00:40:37.177Z,16.23
2018-09-15T00:43:05.706Z,16.27
2018-09-15T00:45:34.245Z,16.70
2018-09-15T00:48:02.791Z,17.93
2018-09-15T00:50:31.317Z,17.97
2018-09-15T00:52:59.781Z,18.57
2018-09-15T00:55:28.330Z,19.00
2018-09-15T00:57:56.818Z,17.83
2018-09-15T01:00:25.398Z,17.53
2018-09-15T01:02:53.924Z,17.23
2018-09-15T01:05:22.458Z,16.33
2018-09-15T01:07:50.955Z,16.30
2018-09-15T01:10:19.433Z,15.23
2018-09-15T01:12:47.951Z,16.50
2018-09-15T01:15:16.473Z,15.80
2018-09-15T01:17:44.993Z,16.43
2018-09-15T01:20:13.497Z,15.20
2018-09-15T01:22:42.020Z,16.27
2018-09-15T01:25:10.500Z,16.30
2018-09-15T01:27:39.082Z,16.73
2018-09-15T01:30:07.597Z,16.20
2018-09-15T01:32:36.106Z,16.50
2018-09-15T01:35:04.642Z,15.73
2018-09-15T01:37:33.149Z,15.63
2018-09-15T01:40:01.647Z,15.37
2018-09-15T01:42:30.162Z,15.87
2018-09-15T01:44:58.653Z,16.47
2018-09-15T01:47:27.173Z,15.83
2018-09-15T01:49:55.705Z,14.47
2018-09-15T01:52:24.274Z,15.17
2018-09-15T01:54:52.756Z,14.03
2018-09-15T01:57:21.292Z,14.77
2018-09-15T01:59:49.778Z,14.57
2018-09-15T02:02:18.299Z,14.23
2018-09-15T02:04:46.792Z,14.50
2018-09-15T02:07:15.321Z,15.93
2018-09-15T02:09:43.806Z,14.80
2018-09-15T02:12:12.350Z,16.10
2018-09-15T02:14:40.810Z,15.57
2018-09-15T02:17:09.454Z,16.17
2018-09-15T02:19:37.901Z,16.00
2018-09-15T02:22:06.526Z,17.83
2018-09-15T02:24:35.006Z,19.70
2018-09-15T02:27:03.513Z,19.33
2018-09-15T02:29:31.995Z,19.33
2018-09-15T02:32:00.505Z,20.83
2018-09-15T02:34:29.000Z,19.83
2018-09-15T02:36:57.517Z,20.47
2018-09-15T02:39:26.070Z,18.37
2018-09-15T02:41:54.579Z,17.03
2018-09-15T02:44:23.046Z,16.83
2018-09-15T02:46:51.574Z,16.93
2018-09-15T02:49:20.050Z,16.43
2018-09-15T02:51:48.574Z,16.77
2018-09-15T02:54:17.089Z,16.50
2018-09-15T02:56:45.619Z,17.10
2018-09-15T02:59:14.138Z,17.27
2018-09-15T03:01:42.658Z,17.37
2018-09-15T03:04:11.133Z,17.67
2018-09-15T03:06:39.618Z,17.67
2018-09-15T03:09:10.270Z,17.33
2018-09-15T03:11:38.809Z,17.50
2018-09-15T03:14:07.339Z,17.90
2018-09-15T03:16:35.976Z,17.30
2018-09-15T03:19:04.518Z,18.47
2018-09-15T03:21:32.992Z,17.57
2018-09-15T03:24:01.502Z,17.57
2018-09-15T03:26:30.224Z,17.67
2018-09-15T03:28:58.745Z,18.60
2018-09-15T03:31:27.259Z,18.53
2018-09-15T03:33:55.758Z,18.20
2018-09-15T03:36:24.252Z,17.93
2018-09-15T03:38:52.770Z,18.37
2018-09-15T03:41:21.336Z,18.43
2018-09-15T03:43:49.906Z,18.23
2018-09-15T03:46:18.451Z,18.27
2018-09-15T03:48:46.949Z,17.70
2018-09-15T03:51:15.454Z,18.10
2018-09-15T03:53:43.953Z,18.27
2018-09-15T03:56:12.446Z,17.97
2018-09-15T03:58:40.990Z,19.13
2018-09-15T04:01:09.503Z,17.97
2018-09-15T04:03:38.006Z,19.50
2018-09-15T04:06:06.488Z,19.03
2018-09-15T04:08:34.994Z,19.87
2018-09-15T04:11:03.567Z,20.13
2018-09-15T04:13:32.051Z,20.40
2018-09-15T04:16:00.538Z,19.40
2018-09-15T04:18:29.082Z,18.33
2018-09-15T04:20:57.583Z,18.97
2018-09-15T04:23:26.085Z,19.50
2018-09-15T04:25:54.582Z,19.07
2018-09-15T04:28:23.162Z,18.43
2018-09-15T04:30:51.714Z,20.10
2018-09-15T04:33:20.231Z,18.73
2018-09-15T04:35:48.693Z,18.47
2018-09-15T04:38:17.195Z,18.80
2018-09-15T04:40:45.665Z,18.97
2018-09-15T04:43:14.183Z,18.77
2018-09-15T04:45:42.698Z,19.37
2018-09-15T04:48:11.245Z,19.40
2018-09-15T04:50:39.766Z,19.60
2018-09-15T04:53:08.298Z,18.97
2018-09-15T04:55:36.787Z,19.80
2018-09-15T04:58:05.362Z,20.40
2018-09-15T05:00:33.892Z,20.47
2018-09-15T05:03:02.401Z,19.30
2018-09-15T05:05:30.915Z,19.80
2018-09-15T05:08:00.343Z,19.47
2018-09-15T05:10:28.873Z,18.03
2018-09-15T05:12:57.474Z,18.00
2018-09-15T05:15:25.970Z,18.93
2018-09-15T05:17:54.478Z,18.80
2018-09-15T05:20:25.113Z,19.00
2018-09-15T05:22:53.665Z,19.33
2018-09-15T05:25:22.218Z,20.70
2018-09-15T05:27:50.693Z,21.83
2018-09-15T05:30:19.219Z,23.90
2018-09-15T05:32:51.636Z,21.73
2018-09-15T05:35:20.173Z,24.37
2018-09-15T05:37:48.665Z,24.23
2018-09-15T05:40:17.201Z,24.57
2018-09-15T05:42:45.744Z,24.50
2018-09-15T05:45:14.270Z,24.70
2018-09-15T05:47:42.758Z,25.10
2018-09-15T05:50:11.307Z,24.93
2018-09-15T05:52:39.797Z,25.77
2018-09-15T05:55:08.318Z,25.57
2018-09-15T05:57:36.779Z,24.13
2018-09-15T06:00:05.692Z,23.63
2018-09-15T06:02:34.170Z,23.27
2018-09-15T06:05:02.685Z,22.43
2018-09-15T06:07:31.333Z,23.00
2018-09-15T06:09:59.831Z,21.07
2018-09-15T06:12:28.309Z,22.27
2018-09-15T06:14:56.818Z,21.63
2018-09-15T06:17:25.317Z,20.87
2018-09-15T06:19:53.833Z,20.70
2018-09-15T06:22:22.341Z,20.17
2018-09-15T06:24:50.866Z,21.63
2018-09-15T06:27:19.354Z,21.30
2018-09-15T06:29:47.881Z,22.03
2018-09-15T06:32:16.418Z,21.70
2018-09-15T06:34:44.981Z,19.63
2018-09-15T06:37:17.108Z,19.80
2018-09-15T06:39:45.950Z,19.80
2018-09-15T06:42:14.450Z,19.17
2018-09-15T06:44:42.999Z,18.47
2018-09-15T06:47:11.476Z,18.03
2018-09-15T06:49:42.870Z,18.37
2018-09-15T06:52:13.329Z,18.73
2018-09-15T06:54:42.246Z,18.30
2018-09-15T06:57:10.771Z,19.13
2018-09-15T06:59:41.132Z,19.63
2018-09-15T07:02:09.651Z,18.47
2018-09-15T07:04:41.907Z,20.30
2018-09-15T07:07:10.398Z,21.13
2018-09-15T07:09:38.945Z,22.07
2018-09-15T07:12:07.474Z,22.53
2018-09-15T07:14:35.949Z,23.07
2018-09-15T07:17:04.491Z,23.50
2018-09-15T07:19:32.989Z,23.33
2018-09-15T07:22:01.490Z,24.47
2018-09-15T07:24:30.242Z,24.40
2018-09-15T07:26:58.762Z,24.47
2018-09-15T07:29:27.446Z,23.13
2018-09-15T07:31:55.995Z,26.13
2018-09-15T07:34:24.484Z,23.40
2018-09-15T07:36:53.002Z,23.83
2018-09-15T07:39:22.772Z,23.57
2018-09-15T07:41:51.319Z,24.87
2018-09-15T07:44:19.834Z,22.00
2018-09-15T07:46:48.357Z,21.20
2018-09-15T07:49:16.998Z,19.73
2018-09-15T07:51:45.558Z,20.48
2018-09-15T07:54:14.000Z,19.25
2018-09-15T07:56:42.557Z,19.07
2018-09-15T07:59:11.027Z,17.87
2018-09-15T08:01:39.538Z,18.15
2018-09-15T08:04:08.163Z,17.35
2018-09-15T08:06:36.687Z,17.02
2018-09-15T08:09:06.594Z,18.95
2018-09-15T08:11:35.079Z,18.32
2018-09-15T08:14:03.578Z,18.52
2018-09-15T08:16:32.101Z,20.68
2018-09-15T08:19:00.602Z,19.57
2018-09-15T08:21:29.103Z,19.17
2018-09-15T08:23:57.587Z,19.75
2018-09-15T08:26:26.161Z,19.52
2018-09-15T08:28:54.594Z,20.77
2018-09-15T08:31:23.112Z,18.85
2018-09-15T08:33:51.605Z,19.95
2018-09-15T08:36:20.134Z,21.12
2018-09-15T08:38:48.613Z,21.90
2018-09-15T08:41:17.179Z,20.50
2018-09-15T08:43:45.694Z,18.67
2018-09-15T08:46:14.171Z,17.37
2018-09-15T08:48:42.710Z,18.57
2018-09-15T08:51:11.206Z,18.20
2018-09-15T08:53:39.706Z,18.27
2018-09-15T08:56:08.258Z,18.57
2018-09-15T08:58:36.783Z,17.60
2018-09-15T09:01:05.390Z,17.02
2018-09-15T09:03:33.963Z,16.35
2018-09-15T09:06:02.446Z,16.70
2018-09-15T09:08:30.973Z,15.15
2018-09-15T09:10:59.431Z,15.72
2018-09-15T09:13:27.966Z,16.27
2018-09-15T09:15:56.454Z,15.30
2018-09-15T09:18:24.980Z,14.90
2018-09-15T09:20:53.490Z,15.03
2018-09-15T09:23:22.296Z,15.43
2018-09-15T09:25:50.844Z,14.75
2018-09-15T09:28:19.335Z,14.18
2018-09-15T09:30:47.825Z,14.40
2018-09-15T09:33:16.338Z,14.70
2018-09-15T09:35:44.858Z,11.90
2018-09-15T09:38:13.442Z,13.30
2018-09-15T09:40:41.923Z,11.97
2018-09-15T09:43:10.498Z,11.63
2018-09-15T09:45:38.992Z,10.58
2018-09-15T09:48:07.535Z,10.53
2018-09-15T09:50:36.022Z,11.05
2018-09-15T09:53:04.537Z,10.68
2018-09-15T09:55:33.057Z,11.65
2018-09-15T09:58:01.593Z,10.48
2018-09-15T10:00:35.259Z,9.65
2018-09-15T10:03:03.759Z,9.25
2018-09-15T10:05:32.275Z,10.20
2018-09-15T10:08:00.782Z,10.30
2018-09-15T10:10:29.366Z,9.00
2018-09-15T10:12:57.844Z,9.58
2018-09-15T10:15:26.369Z,8.90
2018-09-15T10:17:54.865Z,7.97
2018-09-15T10:20:23.390Z,6.97
2018-09-15T10:22:51.925Z,7.05
2018-09-15T10:25:20.433Z,7.25
2018-09-15T10:27:48.907Z,8.23
2018-09-15T10:30:17.418Z,8.35
2018-09-15T10:32:45.908Z,7.78
2018-09-15T10:35:14.434Z,7.37
2018-09-15T10:37:42.893Z,7.60
2018-09-15T10:40:11.460Z,7.05
2018-09-15T10:42:39.918Z,6.78
2018-09-15T10:45:08.449Z,6.95
2018-09-15T10:47:36.966Z,7.78
2018-09-15T10:50:05.512Z,8.00
2018-09-15T10:52:33.984Z,6.90
2018-09-15T10:55:02.489Z,8.00
2018-09-15T10:57:30.987Z,8.48
2018-09-15T10:59:59.557Z,7.92
2018-09-15T11:02:28.054Z,9.33
2018-09-15T11:04:56.565Z,9.40
2018-09-15T11:07:25.973Z,8.23
2018-09-15T11:09:54.493Z,8.68
2018-09-15T11:12:23.016Z,7.55
2018-09-15T11:14:51.507Z,6.50
2018-09-15T11:17:20.018Z,6.47
2018-09-15T11:19:48.515Z,6.12
2018-09-15T11:22:17.048Z,5.50
2018-09-15T11:24:45.574Z,5.97
2018-09-15T11:27:14.087Z,6.10
2018-09-15T11:29:42.565Z,5.40
2018-09-15T11:32:11.094Z,5.10
2018-09-15T11:34:39.590Z,5.47
2018-09-15T11:37:08.098Z,4.97
2018-09-15T11:39:36.598Z,4.28
2018-09-15T11:42:05.129Z,4.22
2018-09-15T11:44:33.605Z,4.12
2018-09-15T11:47:02.128Z,4.40
2018-09-15T11:49:30.617Z,5.03
2018-09-15T11:51:59.118Z,4.60
2018-09-15T11:54:27.705Z,4.62
2018-09-15T11:56:56.202Z,4.80
2018-09-15T11:59:24.690Z,3.98
2018-09-15T12:01:53.190Z,4.47
2018-09-15T12:04:21.665Z,4.20
2018-09-15T12:06:50.164Z,4.35
2018-09-15T12:09:18.626Z,4.40
2018-09-15T12:11:47.122Z,4.12
2018-09-15T12:14:15.639Z,4.22
2018-09-15T12:16:44.135Z,4.10
2018-09-15T12:19:12.614Z,4.08
2018-09-15T12:21:41.990Z,4.10
2018-09-15T12:24:10.459Z,4.45
2018-09-15T12:26:38.945Z,4.55
2018-09-15T12:29:07.478Z,4.85
2018-09-15T12:31:35.994Z,4.60
2018-09-15T12:34:04.599Z,4.90
2018-09-15T12:36:33.094Z,4.78
2018-09-15T12:39:01.579Z,4.65
2018-09-15T12:41:30.091Z,4.58
2018-09-15T12:43:58.580Z,4.72
2018-09-15T12:46:27.105Z,4.80
2018-09-15T12:48:55.573Z,4.62
2018-09-15T12:51:24.071Z,5.00
2018-09-15T12:53:52.569Z,4.92
2018-09-15T12:56:21.043Z,5.00
2018-09-15T12:58:49.559Z,4.90
2018-09-15T13:01:18.068Z,4.75
2018-09-15T13:03:46.516Z,4.65
2018-09-15T13:06:15.060Z,4.78
2018-09-15T13:08:43.561Z,4.53
2018-09-15T13:11:12.009Z,4.67
2018-09-15T13:13:40.481Z,4.20
2018-09-15T13:16:08.939Z,4.28
2018-09-15T13:18:37.442Z,4.58
2018-09-15T13:21:05.921Z,4.40
2018-09-15T13:23:34.434Z,4.87
2018-09-15T13:26:02.930Z,4.50
2018-09-15T13:28:31.445Z,4.55
2018-09-15T13:30:59.935Z,4.40
2018-09-15T13:33:28.505Z,4.00
2018-09-15T13:35:56.987Z,4.10
2018-09-15T13:38:25.491Z,3.35
2018-09-15T13:40:53.975Z,3.67
2018-09-15T13:43:22.502Z,4.17
2018-09-15T13:45:50.974Z,3.72
2018-09-15T13:48:19.704Z,3.52
2018-09-15T13:50:48.161Z,3.40
2018-09-15T13:53:16.696Z,3.52
2018-09-15T13:55:45.180Z,3.27
2018-09-15T13:58:13.701Z,3.08
2018-09-15T14:00:42.173Z,3.45
2018-09-15T14:03:10.694Z,3.55
2018-09-15T14:05:39.161Z,3.65
2018-09-15T14:08:07.699Z,3.50
2018-09-15T14:10:36.218Z,3.50
2018-09-15T14:13:04.683Z,3.20
2018-09-15T14:15:33.151Z,3.55
2018-09-15T14:18:01.656Z,3.40
2018-09-15T14:20:30.118Z,3.25
2018-09-15T14:22:58.594Z,3.20
2018-09-15T14:25:27.153Z,3.15
2018-09-15T14:27:55.648Z,3.55
2018-09-15T14:30:24.110Z,3.55
2018-09-15T14:32:52.614Z,3.17
2018-09-15T14:35:21.090Z,3.05
2018-09-15T14:37:49.602Z,3.27
2018-09-15T14:40:18.053Z,3.22
2018-09-15T14:42:46.594Z,3.40
2018-09-15T14:45:15.103Z,3.30
2018-09-15T14:47:43.586Z,3.20
2018-09-15T14:50:12.067Z,3.17
2018-09-15T14:52:40.565Z,2.72
2018-09-15T14:55:09.067Z,3.27
2018-09-15T14:57:37.531Z,3.17
2018-09-15T15:00:07.378Z,3.12
2018-09-15T15:02:35.909Z,2.98
2018-09-15T15:05:04.460Z,2.92
2018-09-15T15:07:33.001Z,2.72
2018-09-15T15:10:01.473Z,3.00
2018-09-15T15:12:29.963Z,3.12
2018-09-15T15:14:58.486Z,3.15
2018-09-15T15:17:26.933Z,3.22
2018-09-15T15:19:55.438Z,3.00
2018-09-15T15:22:23.914Z,2.90
2018-09-15T15:24:52.397Z,3.20
2018-09-15T15:27:20.860Z,3.10
2018-09-15T15:29:49.354Z,3.02
2018-09-15T15:32:17.807Z,3.25
2018-09-15T15:34:46.318Z,2.95
2018-09-15T15:37:14.776Z,3.00
2018-09-15T15:39:43.281Z,2.83
2018-09-15T15:42:11.788Z,2.92
2018-09-15T15:44:40.291Z,3.00
2018-09-15T15:47:08.749Z,2.80
2018-09-15T15:49:37.298Z,2.80
2018-09-15T15:52:05.946Z,3.02
2018-09-15T15:54:34.433Z,2.70
2018-09-15T15:57:02.932Z,3.20
2018-09-15T15:59:31.430Z,2.80
2018-09-15T16:01:59.901Z,2.92
2018-09-15T16:04:28.471Z,2.80
2018-09-15T16:06:56.910Z,3.00
2018-09-15T16:09:25.465Z,3.17
2018-09-15T16:11:53.933Z,2.83
2018-09-15T16:14:22.417Z,3.37
2018-09-15T16:16:50.869Z,3.10
2018-09-15T16:19:19.366Z,2.80
2018-09-15T16:21:47.825Z,3.30
2018-09-15T16:24:16.313Z,2.90
2018-09-15T16:26:44.794Z,3.22
2018-09-15T16:29:13.299Z,3.20
2018-09-15T16:31:41.840Z,3.05
2018-09-15T16:34:10.342Z,2.83
2018-09-15T16:36:38.785Z,3.47
2018-09-15T16:39:09.274Z,3.30
2018-09-15T16:41:38.090Z,3.30
2018-09-15T16:44:06.749Z,3.20
2018-09-15T16:46:35.649Z,2.80
2018-09-15T16:49:04.438Z,3.02
2018-09-15T16:51:32.909Z,3.25
2018-09-15T16:54:01.386Z,3.22
2018-09-15T16:56:29.876Z,3.37
2018-09-15T16:58:58.345Z,3.50
2018-09-15T17:01:26.821Z,3.77
2018-09-15T17:03:55.285Z,4.05
2018-09-15T17:06:23.810Z,3.60
2018-09-15T17:08:52.269Z,3.90
2018-09-15T17:11:20.829Z,4.17
2018-09-15T17:13:49.346Z,4.23
2018-09-15T17:16:17.945Z,4.40
2018-09-15T17:18:46.398Z,4.47
2018-09-15T17:21:14.905Z,4.23
2018-09-15T17:23:43.374Z,4.37
2018-09-15T17:26:11.870Z,4.20
2018-09-15T17:28:40.346Z,4.77
2018-09-15T17:31:08.963Z,4.80
2018-09-15T17:33:37.409Z,4.73
2018-09-15T17:36:07.838Z,4.67
2018-09-15T17:38:36.362Z,4.40
2018-09-15T17:41:04.893Z,4.23
2018-09-15T17:43:33.386Z,3.90
2018-09-15T17:46:01.905Z,4.20
2018-09-15T17:48:33.194Z,4.13
2018-09-15T17:51:01.721Z,3.90
2018-09-15T17:53:30.201Z,4.10
2018-09-15T17:55:58.708Z,4.63
2018-09-15T17:58:27.200Z,4.90
2018-09-15T18:00:55.694Z,5.23
2018-09-15T18:03:24.215Z,5.50
2018-09-15T18:05:52.685Z,5.30
2018-09-15T18:08:21.170Z,5.00
2018-09-15T18:10:49.774Z,4.90
2018-09-15T18:20:19.794Z,4.80
2018-09-15T18:22:55.091Z,4.73
2018-09-15T18:25:23.674Z,4.63
2018-09-15T18:27:52.170Z,4.90
2018-09-15T18:30:20.663Z,4.60
2018-09-15T18:32:49.190Z,5.27
2018-09-15T18:35:17.656Z,5.00
2018-09-15T18:37:46.127Z,5.07
2018-09-15T18:40:14.582Z,5.03
2018-09-15T18:42:43.082Z,5.13
2018-09-15T18:45:11.586Z,4.90
2018-09-15T18:47:40.092Z,5.17
2018-09-15T18:50:08.573Z,5.03
2018-09-15T18:52:37.070Z,5.00
2018-09-15T18:55:05.562Z,5.13
2018-09-15T18:57:34.045Z,5.70
2018-09-15T19:00:02.573Z,5.80
2018-09-15T19:02:31.057Z,5.27
2018-09-15T19:04:59.514Z,5.53
2018-09-15T19:07:28.003Z,4.93
2018-09-15T19:09:56.468Z,5.70
2018-09-15T19:12:24.961Z,6.20
2018-09-15T19:14:53.458Z,6.60
2018-09-15T19:17:21.944Z,6.20
2018-09-15T19:19:50.417Z,6.20
2018-09-15T19:22:18.933Z,6.20
2018-09-15T19:24:47.445Z,6.03
2018-09-15T19:27:16.022Z,5.40
2018-09-15T19:29:44.511Z,6.10
2018-09-15T19:32:13.027Z,6.00
2018-09-15T19:34:41.630Z,6.47
2018-09-15T19:37:10.136Z,5.67
2018-09-15T19:39:38.605Z,6.43
2018-09-15T19:42:07.481Z,6.17
2018-09-15T19:44:35.948Z,6.13
2018-09-15T19:47:09.474Z,5.83
2018-09-15T19:49:37.958Z,5.63
2018-09-15T19:52:06.499Z,6.30
2018-09-15T19:54:34.946Z,5.83
2018-09-15T19:57:03.457Z,6.17
2018-09-15T19:59:31.977Z,6.90
2018-09-15T20:02:00.488Z,7.60
2018-09-15T20:04:28.964Z,8.73
2018-09-15T20:06:57.521Z,9.03
2018-09-15T20:09:26.025Z,8.97
2018-09-15T20:11:54.502Z,8.93
2018-09-15T20:14:22.973Z,7.70
2018-09-15T20:16:50.234Z,6.77
2018-09-15T20:19:17.526Z,6.73
2018-09-15T20:21:44.788Z,6.17
2018-09-15T20:24:13.286Z,5.73
2018-09-15T20:26:41.733Z,5.43
2018-09-15T20:29:10.213Z,5.67
2018-09-15T20:31:38.711Z,5.10
2018-09-15T20:34:07.218Z,5.50
2018-09-15T20:36:35.711Z,6.10
2018-09-15T20:39:06.343Z,6.10
2018-09-15T20:41:34.812Z,6.03
2018-09-15T20:44:03.329Z,5.83
2018-09-15T20:46:32.024Z,5.90
2018-09-15T20:49:00.557Z,5.87
2018-09-15T20:51:29.193Z,5.73
2018-09-15T20:53:57.664Z,5.60
2018-09-15T20:56:26.137Z,5.00
2018-09-15T20:58:54.620Z,4.87
2018-09-15T21:01:23.091Z,4.60
2018-09-15T21:03:51.602Z,4.70
2018-09-15T21:06:20.070Z,4.37
2018-09-15T21:08:48.550Z,4.53
2018-09-15T21:11:17.018Z,4.20
2018-09-15T21:13:45.546Z,4.70
2018-09-15T21:16:14.030Z,4.53
2018-09-15T21:18:42.533Z,5.17
2018-09-15T21:21:10.967Z,4.97
2018-09-15T21:23:39.447Z,5.67
2018-09-15T21:26:07.914Z,4.77
2018-09-15T21:28:36.410Z,4.57
2018-09-15T21:31:04.945Z,6.10
2018-09-15T21:33:33.446Z,5.23
2018-09-15T21:36:01.937Z,4.93
2018-09-15T21:38:30.471Z,4.77
2018-09-15T21:40:58.899Z,4.30
2018-09-15T21:43:27.409Z,4.27
2018-09-15T21:45:55.858Z,5.10
2018-09-15T21:48:24.347Z,5.73
2018-09-15T21:50:52.831Z,5.57
2018-09-15T21:53:21.343Z,5.13
2018-09-15T21:55:49.822Z,4.80
2018-09-15T21:58:18.306Z,5.57
2018-09-15T22:00:46.881Z,5.90
2018-09-15T22:03:16.165Z,6.10
2018-09-15T22:05:44.658Z,5.13
2018-09-15T22:08:13.115Z,4.57
2018-09-15T22:10:41.620Z,4.63
2018-09-15T22:13:10.068Z,4.57
2018-09-15T22:15:38.569Z,4.70
2018-09-15T22:18:07.025Z,4.87
2018-09-15T22:20:35.533Z,5.60
2018-09-15T22:23:03.989Z,5.70
2018-09-15T22:25:32.484Z,6.63
2018-09-15T22:28:00.953Z,6.57
2018-09-15T22:30:29.433Z,7.17
2018-09-15T22:32:57.911Z,6.70
2018-09-15T22:35:26.399Z,7.07
2018-09-15T22:37:54.866Z,9.80
2018-09-15T22:40:23.361Z,9.33
2018-09-15T22:42:51.840Z,9.17
2018-09-15T22:45:20.341Z,8.53
2018-09-15T22:47:48.817Z,7.83
2018-09-15T22:50:17.310Z,9.13
2018-09-15T22:52:45.796Z,9.13
2018-09-15T22:55:14.297Z,9.57
2018-09-15T22:57:42.764Z,11.13
2018-09-15T23:00:11.386Z,12.23
2018-09-15T23:02:39.849Z,10.40
2018-09-15T23:05:08.380Z,10.73
2018-09-15T23:07:36.846Z,9.97
2018-09-15T23:10:05.657Z,8.83
2018-09-15T23:12:34.129Z,9.23
2018-09-15T23:15:02.642Z,9.40
2018-09-15T23:17:31.104Z,8.70
2018-09-15T23:19:59.589Z,8.70
2018-09-15T23:22:28.049Z,8.87
2018-09-15T23:24:56.580Z,8.57
2018-09-15T23:27:25.019Z,8.23
2018-09-15T23:29:53.513Z,8.67
2018-09-15T23:32:21.965Z,8.87
2018-09-15T23:34:50.469Z,8.80
2018-09-15T23:37:18.921Z,9.97
2018-09-15T23:39:47.410Z,9.27
2018-09-15T23:42:15.904Z,9.70
2018-09-15T23:44:44.389Z,9.23
2018-09-15T23:47:12.850Z,9.43
2018-09-15T23:49:41.353Z,9.17
2018-09-15T23:52:09.862Z,9.20
2018-09-15T23:54:38.340Z,8.63
2018-09-15T23:57:06.883Z,9.03
2018-09-15T23:59:35.350Z,8.40
